Time;durP1;ratioP1;P1;durP2;ratioP2;P2;SDS_P1;SDS_P2;PMS_P1;PMS_P2;Temp;Humidity;BMP_temperature;BMP_pressure;BME280_temperature;BME280_humidity;BME280_pressure;Samples;Min_cycle;Max_cycle;Signal;HPM_P1;HPM_P2
2023/04/17 00:01:48;;;;;;;4.30;4.03;;;19.30;44.40;;;;;;5014010;28;20987;-65
2023/04/17 00:04:14;;;;;;;4.80;4.50;;;19.20;44.40;;;;;;5010936;28;20467;-65
2023/04/17 00:06:43;;;;;;;4.60;4.30;;;19.30;44.50;;;;;;5009748;28;20265;-72
2023/04/17 00:09:09;;;;;;;4.87;4.57;;;19.20;44.50;;;;;;5010461;28;20424;-70
2023/04/17 00:11:34;;;;;;;4.57;4.23;;;19.20;44.40;;;;;;5015910;28;21073;-68
2023/04/17 00:14:00;;;;;;;4.60;4.40;;;19.20;44.50;;;;;;5017831;28;20305;-67
2023/04/17 00:16:26;;;;;;;4.33;4.13;;;19.20;44.40;;;;;;5017872;28;20569;-66
2023/04/17 00:18:53;;;;;;;4.10;3.90;;;19.20;44.30;;;;;;5016434;28;20226;-68
2023/04/17 00:21:18;;;;;;;4.47;4.27;;;19.20;44.30;;;;;;5017695;28;20427;-66
2023/04/17 00:23:44;;;;;;;4.33;4.10;;;19.30;44.60;;;;;;5017700;28;20447;-66
2023/04/17 00:26:10;;;;;;;4.57;4.37;;;19.20;44.30;;;;;;5014550;28;20301;-66
2023/04/17 00:28:36;;;;;;;4.20;4.00;;;19.20;44.40;;;;;;5015449;28;20514;-66
2023/04/17 00:31:01;;;;;;;4.30;4.10;;;19.30;44.60;;;;;;5016140;28;20233;-66
2023/04/17 00:33:27;;;;;;;4.10;3.90;;;19.20;44.40;;;;;;5016850;28;21035;-66
2023/04/17 00:35:52;;;;;;;4.23;4.03;;;19.30;44.60;;;;;;5012363;28;20235;-67
2023/04/17 00:38:18;;;;;;;4.57;4.30;;;19.30;44.60;;;;;;5003352;28;20233;-65
2023/04/17 00:40:44;;;;;;;4.63;4.33;;;19.20;44.40;;;;;;5012569;28;20253;-67
2023/04/17 00:43:10;;;;;;;4.50;4.30;;;19.30;44.60;;;;;;5012202;28;20225;-69
2023/04/17 00:45:35;;;;;;;4.60;4.40;;;19.20;44.50;;;;;;5013330;28;20452;-68
2023/04/17 00:48:03;;;;;;;4.20;3.90;;;19.20;44.50;;;;;;5017376;28;20215;-67
2023/04/17 00:50:30;;;;;;;4.60;4.40;;;19.20;44.50;;;;;;5022544;28;20313;-68
2023/04/17 00:52:56;;;;;;;3.93;3.73;;;19.20;44.50;;;;;;5011978;28;20479;-69
2023/04/17 00:55:22;;;;;;;5.00;4.70;;;19.30;44.60;;;;;;5019054;28;20442;-65
2023/04/17 00:57:48;;;;;;;4.40;4.20;;;19.20;44.50;;;;;;5012164;28;20460;-68
2023/04/17 01:00:15;;;;;;;4.23;4.03;;;19.20;44.50;;;;;;5017429;28;20215;-66
2023/04/17 01:02:41;;;;;;;4.50;4.30;;;19.20;44.50;;;;;;5015957;28;20670;-66
2023/04/17 01:05:07;;;;;;;4.43;4.23;;;19.20;44.50;;;;;;5020222;28;20470;-67
2023/04/17 01:07:33;;;;;;;4.77;4.57;;;19.20;44.50;;;;;;5020340;28;20575;-69
2023/04/17 01:09:58;;;;;;;4.53;4.33;;;19.20;44.50;;;;;;5013611;28;20268;-67
2023/04/17 01:12:25;;;;;;;5.00;4.60;;;19.20;44.60;;;;;;5016252;28;20231;-66
2023/04/17 01:14:54;;;;;;;5.27;4.90;;;19.20;44.50;;;;;;5019797;28;20262;-68
2023/04/17 01:17:21;;;;;;;4.83;4.63;;;19.20;44.60;;;;;;5018271;28;20503;-67
2023/04/17 01:19:48;;;;;;;4.10;3.90;;;19.20;44.60;;;;;;5017404;28;20443;-67
2023/04/17 01:22:17;;;;;;;4.10;3.90;;;19.20;45.30;;;;;;5017142;28;20468;-69
2023/04/17 01:24:42;;;;;;;4.97;4.67;;;19.20;44.60;;;;;;5020766;28;20464;-67
2023/04/17 01:27:08;;;;;;;4.50;4.20;;;19.20;44.50;;;;;;5023064;28;20435;-66
2023/04/17 01:29:34;;;;;;;4.60;4.40;;;19.20;44.60;;;;;;5017453;28;20250;-65
2023/04/17 01:32:00;;;;;;;4.40;4.07;;;19.20;44.60;;;;;;5020386;28;20824;-72
2023/04/17 01:34:26;;;;;;;4.70;4.40;;;19.20;44.60;;;;;;5013453;28;20889;-66
2023/04/17 01:36:51;;;;;;;4.70;4.43;;;19.20;44.60;;;;;;5017533;28;20292;-68
2023/04/17 01:39:17;;;;;;;4.77;4.57;;;19.20;44.60;;;;;;5020641;28;20227;-66
2023/04/17 01:41:43;;;;;;;3.93;3.73;;;19.20;44.60;;;;;;5015631;28;20335;-67
2023/04/17 01:44:08;;;;;;;4.30;4.10;;;19.20;44.50;;;;;;5014794;28;20270;-65
2023/04/17 01:46:34;;;;;;;4.70;4.50;;;19.20;44.60;;;;;;5021900;28;20760;-65
2023/04/17 01:49:00;;;;;;;4.83;4.60;;;19.20;44.60;;;;;;5016358;28;20227;-66
2023/04/17 01:51:26;;;;;;;4.40;4.10;;;19.20;44.60;;;;;;5014945;28;20438;-65
2023/04/17 01:53:52;;;;;;;4.80;4.50;;;19.20;44.60;;;;;;5016845;28;20263;-65
2023/04/17 01:56:18;;;;;;;4.57;4.27;;;19.20;44.60;;;;;;5015171;28;20550;-65
2023/04/17 01:58:43;;;;;;;4.60;4.40;;;19.20;44.60;;;;;;5011177;28;20229;-65
2023/04/17 02:01:09;;;;;;;5.13;4.83;;;19.20;44.60;;;;;;5014373;28;20215;-71
2023/04/17 02:03:35;;;;;;;4.40;4.20;;;19.20;44.80;;;;;;5018875;28;20248;-68
2023/04/17 02:06:00;;;;;;;4.60;4.40;;;19.20;44.60;;;;;;5020893;28;20238;-67
2023/04/17 02:08:26;;;;;;;4.10;3.90;;;19.20;44.60;;;;;;5019237;28;20681;-66
2023/04/17 02:10:52;;;;;;;4.77;4.57;;;19.20;44.60;;;;;;5022163;28;20226;-66
2023/04/17 02:13:17;;;;;;;4.60;4.30;;;19.20;44.60;;;;;;5017217;28;20731;-69
2023/04/17 02:15:43;;;;;;;4.63;4.43;;;19.20;44.60;;;;;;5021847;28;20226;-66
2023/04/17 02:18:08;;;;;;;5.47;5.13;;;19.20;44.60;;;;;;5018641;28;20584;-66
2023/04/17 02:20:35;;;;;;;4.43;4.20;;;19.20;44.60;;;;;;5021738;28;20241;-67
2023/04/17 02:23:01;;;;;;;4.27;4.07;;;19.20;44.60;;;;;;5019715;28;20318;-66
2023/04/17 02:25:27;;;;;;;5.20;4.90;;;19.20;44.60;;;;;;5025688;28;20554;-66
2023/04/17 02:27:55;;;;;;;4.23;3.93;;;19.20;44.60;;;;;;5019323;28;20448;-67
2023/04/17 02:30:21;;;;;;;4.60;4.40;;;19.20;44.60;;;;;;5023243;28;20475;-66
2023/04/17 02:32:49;;;;;;;4.50;4.30;;;19.20;44.70;;;;;;5021851;28;20510;-66
2023/04/17 02:35:14;;;;;;;5.10;4.90;;;19.20;44.60;;;;;;5022375;28;20430;-66
2023/04/17 02:37:40;;;;;;;4.20;4.00;;;19.20;44.60;;;;;;5019566;28;20763;-65
2023/04/17 02:40:06;;;;;;;4.30;4.10;;;19.20;44.70;;;;;;5014894;28;20234;-66
2023/04/17 02:42:32;;;;;;;5.10;4.80;;;19.20;44.70;;;;;;5025004;28;20301;-67
2023/04/17 02:44:58;;;;;;;5.17;4.87;;;19.20;44.70;;;;;;5020813;28;20535;-65
2023/04/17 02:47:23;;;;;;;5.10;4.80;;;19.20;44.60;;;;;;5022554;28;20273;-66
2023/04/17 02:49:49;;;;;;;4.77;4.47;;;19.20;44.70;;;;;;5025458;28;20713;-66
2023/04/17 02:52:15;;;;;;;4.77;4.47;;;19.20;44.70;;;;;;5022440;28;20802;-66
2023/04/17 02:54:40;;;;;;;4.67;4.47;;;19.20;44.70;;;;;;5019803;28;20467;-66
2023/04/17 02:57:06;;;;;;;5.37;5.07;;;19.20;44.70;;;;;;5020699;28;20226;-69
2023/04/17 02:59:31;;;;;;;5.13;4.87;;;19.20;44.70;;;;;;5024702;28;20300;-67
2023/04/17 03:01:58;;;;;;;4.90;4.60;;;19.20;44.70;;;;;;5019334;28;20217;-66
2023/04/17 03:04:27;;;;;;;4.60;4.40;;;19.20;44.70;;;;;;5019658;28;20233;-67
2023/04/17 03:06:52;;;;;;;5.23;4.97;;;19.20;45.50;;;;;;5020873;28;20431;-65
2023/04/17 03:09:21;;;;;;;5.10;4.80;;;19.20;44.70;;;;;;5020180;28;20755;-65
2023/04/17 03:11:47;;;;;;;4.50;4.30;;;19.20;44.70;;;;;;5019973;28;20261;-66
2023/04/17 03:14:12;;;;;;;4.60;4.30;;;19.20;44.70;;;;;;5024363;28;20953;-68
2023/04/17 03:16:38;;;;;;;5.20;4.80;;;19.20;44.70;;;;;;5019499;28;20591;-66
2023/04/17 03:19:03;;;;;;;4.80;4.50;;;19.20;44.70;;;;;;5021503;28;20219;-66
2023/04/17 03:21:29;;;;;;;5.10;4.80;;;19.20;44.70;;;;;;5020252;28;20215;-66
2023/04/17 03:23:54;;;;;;;5.30;5.00;;;19.20;44.80;;;;;;5019655;28;20234;-66
2023/04/17 03:26:20;;;;;;;4.80;4.60;;;19.10;44.80;;;;;;5019454;28;20229;-67
2023/04/17 03:28:46;;;;;;;5.90;5.40;;;19.20;44.80;;;;;;5019788;28;20230;-67
2023/04/17 03:31:11;;;;;;;4.43;4.23;;;19.20;44.80;;;;;;5018445;28;20444;-68
2023/04/17 03:33:37;;;;;;;5.67;5.23;;;19.20;44.80;;;;;;5020435;28;21020;-68
2023/04/17 03:36:03;;;;;;;5.40;5.10;;;19.20;44.80;;;;;;5018779;28;20683;-70
2023/04/17 03:38:29;;;;;;;5.10;4.70;;;19.20;44.80;;;;;;5017051;28;21110;-66
2023/04/17 03:40:54;;;;;;;5.13;4.83;;;19.10;44.70;;;;;;5017578;28;20344;-67
2023/04/17 03:43:20;;;;;;;6.33;5.93;;;19.20;44.80;;;;;;5016465;28;20265;-66
2023/04/17 03:45:45;;;;;;;5.20;4.83;;;19.20;44.80;;;;;;5019259;28;20215;-68
2023/04/17 03:48:11;;;;;;;5.17;4.87;;;19.20;44.80;;;;;;5016309;28;20584;-66
2023/04/17 03:50:36;;;;;;;5.00;4.80;;;19.20;44.80;;;;;;5016252;28;20245;-66
2023/04/17 03:53:02;;;;;;;5.80;5.40;;;19.10;45.50;;;;;;5018329;28;20717;-68
2023/04/17 03:55:27;;;;;;;5.00;4.70;;;19.20;44.80;;;;;;5021266;28;20322;-66
2023/04/17 03:57:53;;;;;;;5.43;5.13;;;19.10;44.70;;;;;;5017681;28;20227;-67
2023/04/17 04:00:20;;;;;;;5.27;4.97;;;19.10;44.70;;;;;;5021202;28;20234;-66
2023/04/17 04:02:46;;;;;;;5.53;5.23;;;19.10;44.70;;;;;;5020109;28;20265;-65
2023/04/17 04:05:11;;;;;;;5.63;5.23;;;19.10;44.70;;;;;;5016384;28;20471;-66
2023/04/17 04:07:37;;;;;;;5.00;4.70;;;19.10;44.70;;;;;;5019634;28;20283;-65
2023/04/17 04:10:03;;;;;;;5.33;5.03;;;19.20;44.80;;;;;;5016437;28;20750;-65
2023/04/17 04:12:28;;;;;;;6.27;5.77;;;19.20;44.70;;;;;;5016020;28;20249;-65
2023/04/17 04:14:54;;;;;;;5.17;4.83;;;19.20;44.70;;;;;;5017274;28;20222;-67
2023/04/17 04:17:19;;;;;;;5.07;4.67;;;19.20;44.70;;;;;;5022340;28;20570;-67
2023/04/17 04:19:46;;;;;;;4.90;4.60;;;19.20;44.60;;;;;;5017574;28;20227;-68
2023/04/17 04:22:12;;;;;;;5.07;4.70;;;19.20;44.60;;;;;;5011565;28;20230;-64
2023/04/17 04:24:39;;;;;;;5.80;5.40;;;19.20;44.50;;;;;;5015900;28;20497;-65
2023/04/17 04:27:05;;;;;;;4.50;4.30;;;19.30;44.60;;;;;;5013850;28;20734;-65
2023/04/17 04:29:31;;;;;;;5.40;5.10;;;19.20;44.60;;;;;;5014964;28;20516;-67
2023/04/17 04:31:57;;;;;;;5.77;5.40;;;19.20;44.50;;;;;;5013344;28;20857;-67
2023/04/17 04:34:24;;;;;;;5.90;5.50;;;19.30;44.60;;;;;;5013072;28;20226;-64
2023/04/17 04:36:51;;;;;;;5.77;5.47;;;19.20;44.50;;;;;;5013025;28;20449;-64
2023/04/17 04:39:19;;;;;;;5.87;5.47;;;19.20;44.40;;;;;;5017330;28;20526;-65
2023/04/17 04:41:49;;;;;;;5.37;5.07;;;19.30;44.60;;;;;;5008646;28;20467;-65
2023/04/17 04:44:16;;;;;;;5.83;5.47;;;19.30;44.50;;;;;;5015747;28;20442;-65
2023/04/17 04:46:41;;;;;;;5.30;5.00;;;19.30;44.50;;;;;;5015549;28;20561;-66
2023/04/17 04:49:07;;;;;;;5.63;5.23;;;19.30;44.50;;;;;;5004894;28;20439;-71
2023/04/17 04:51:34;;;;;;;5.70;5.40;;;19.20;44.50;;;;;;5005723;28;20731;-66
2023/04/17 04:53:59;;;;;;;5.77;5.37;;;19.30;44.50;;;;;;5011218;28;20312;-65
2023/04/17 04:56:25;;;;;;;5.50;5.20;;;19.20;44.30;;;;;;5016472;28;20521;-69
2023/04/17 04:58:50;;;;;;;5.70;5.40;;;19.20;44.50;;;;;;5010552;28;20223;-64
2023/04/17 05:01:16;;;;;;;6.50;6.10;;;19.20;44.40;;;;;;5010832;28;20463;-67
2023/04/17 05:03:43;;;;;;;6.30;5.90;;;19.20;44.30;;;;;;5013380;28;20219;-66
2023/04/17 05:06:10;;;;;;;5.77;5.47;;;19.20;44.30;;;;;;5014774;28;20607;-70
2023/04/17 05:08:36;;;;;;;5.43;5.03;;;19.20;44.40;;;;;;5009280;28;20435;-66
2023/04/17 05:11:02;;;;;;;5.23;4.83;;;19.30;44.50;;;;;;5012387;28;20427;-67
2023/04/17 05:13:29;;;;;;;5.70;5.37;;;19.20;44.50;;;;;;5013247;28;20230;-65
2023/04/17 05:15:55;;;;;;;6.33;4.70;;;19.30;44.50;;;;;;5013580;28;20798;-63
2023/04/17 05:18:20;;;;;;;5.67;5.30;;;19.20;44.30;;;;;;5010056;28;20426;-67
2023/04/17 05:20:46;;;;;;;5.47;5.17;;;19.20;44.30;;;;;;5013190;28;20233;-65
2023/04/17 05:23:11;;;;;;;5.73;5.43;;;19.20;44.20;;;;;;5008444;28;20218;-65
2023/04/17 05:25:37;;;;;;;5.67;5.30;;;19.20;44.30;;;;;;5012180;28;20244;-69
2023/04/17 05:28:02;;;;;;;5.90;5.50;;;19.20;44.30;;;;;;5011020;28;20235;-67
2023/04/17 05:30:28;;;;;;;5.67;5.27;;;19.20;44.30;;;;;;5013345;28;20226;-69
2023/04/17 05:32:53;;;;;;;5.77;5.43;;;19.30;44.50;;;;;;5016761;28;20243;-65
2023/04/17 05:35:19;;;;;;;5.70;5.40;;;19.20;44.30;;;;;;5013850;28;20594;-72
2023/04/17 05:37:45;;;;;;;6.20;5.70;;;19.30;44.40;;;;;;5012204;28;20770;-65
2023/04/17 05:40:11;;;;;;;4.97;4.60;;;19.20;44.20;;;;;;5013441;28;20246;-66
2023/04/17 05:42:36;;;;;;;6.40;5.60;;;19.20;44.30;;;;;;5012939;28;20295;-66
2023/04/17 05:45:02;;;;;;;6.17;5.73;;;19.30;44.40;;;;;;5014006;28;20223;-65
2023/04/17 05:47:27;;;;;;;5.90;5.50;;;19.20;44.40;;;;;;5013307;28;20214;-69
2023/04/17 05:49:56;;;;;;;5.90;5.50;;;19.30;44.50;;;;;;5014600;28;20698;-68
2023/04/17 05:52:23;;;;;;;5.80;5.47;;;19.30;44.50;;;;;;5015108;28;20270;-69
2023/04/17 05:54:48;;;;;;;5.83;5.43;;;19.20;44.30;;;;;;5011691;28;20529;-70
2023/04/17 05:57:14;;;;;;;5.80;5.40;;;19.30;44.40;;;;;;5002158;28;20768;-70
2023/04/17 05:59:40;;;;;;;6.60;6.07;;;19.30;44.40;;;;;;5012862;28;20222;-66
2023/04/17 06:02:06;;;;;;;5.20;4.80;;;19.20;44.30;;;;;;5004108;28;20599;-71
2023/04/17 06:04:32;;;;;;;5.47;5.17;;;19.30;44.50;;;;;;5018289;28;20620;-67
2023/04/17 06:06:58;;;;;;;5.50;5.20;;;19.30;44.80;;;;;;5009254;28;21693;-66
2023/04/17 06:09:23;;;;;;;4.90;4.70;;;19.30;44.40;;;;;;5009002;28;20219;-66
2023/04/17 06:11:49;;;;;;;6.27;5.87;;;19.20;44.30;;;;;;5013626;28;20257;-72
2023/04/17 06:14:14;;;;;;;5.33;5.03;;;19.30;44.50;;;;;;5006293;28;20281;-68
2023/04/17 06:16:40;;;;;;;5.63;5.27;;;19.20;44.30;;;;;;5014773;28;20678;-66
2023/04/17 06:19:05;;;;;;;6.00;5.60;;;19.30;45.20;;;;;;5010180;28;20994;-66
2023/04/17 06:21:31;;;;;;;5.80;5.40;;;19.30;44.50;;;;;;5014980;28;20229;-69
2023/04/17 06:23:57;;;;;;;6.23;5.87;;;19.30;44.50;;;;;;5017437;28;20234;-72
2023/04/17 06:26:22;;;;;;;5.77;5.37;;;19.30;44.50;;;;;;5016907;28;20237;-70
2023/04/17 06:28:48;;;;;;;6.67;6.17;;;19.30;44.50;;;;;;5016189;28;20226;-65
2023/04/17 06:31:13;;;;;;;5.87;5.47;;;19.30;44.50;;;;;;5017619;28;20220;-65
2023/04/17 06:33:39;;;;;;;6.17;5.77;;;19.30;44.60;;;;;;5017184;28;20230;-72
2023/04/17 06:36:05;;;;;;;5.53;5.23;;;19.30;44.60;;;;;;5015380;28;20222;-69
2023/04/17 06:38:30;;;;;;;5.93;5.60;;;19.20;44.50;;;;;;5017904;28;20222;-66
2023/04/17 06:40:56;;;;;;;5.93;5.53;;;19.30;44.50;;;;;;5017990;28;20227;-69
2023/04/17 06:43:21;;;;;;;6.93;6.43;;;19.20;44.50;;;;;;5016100;28;20237;-67
2023/04/17 06:45:47;;;;;;;6.20;5.90;;;19.30;44.50;;;;;;5019710;28;20219;-65
2023/04/17 06:48:13;;;;;;;5.20;4.90;;;19.20;44.50;;;;;;5021542;28;20223;-72
2023/04/17 06:50:38;;;;;;;6.50;5.90;;;19.20;44.50;;;;;;5022732;28;20232;-67
2023/04/17 06:53:04;;;;;;;5.50;5.20;;;19.30;44.60;;;;;;5019242;28;20234;-65
2023/04/17 06:55:30;;;;;;;5.23;4.93;;;19.30;44.70;;;;;;5017655;28;20230;-67
2023/04/17 06:57:55;;;;;;;5.50;5.20;;;19.20;44.50;;;;;;5016331;28;20444;-66
2023/04/17 07:00:21;;;;;;;6.37;5.93;;;19.30;44.50;;;;;;5018154;28;20214;-65
2023/04/17 07:02:47;;;;;;;6.17;5.77;;;19.20;44.40;;;;;;5018785;28;20226;-66
2023/04/17 07:05:12;;;;;;;6.00;5.60;;;19.20;44.50;;;;;;5016551;28;20719;-65
2023/04/17 07:07:38;;;;;;;5.50;5.20;;;19.30;44.60;;;;;;5019055;28;20241;-70
2023/04/17 07:10:05;;;;;;;5.67;5.30;;;19.30;44.50;;;;;;5020527;28;20653;-67
2023/04/17 07:12:32;;;;;;;5.03;4.73;;;19.20;44.50;;;;;;5018967;28;20250;-67
2023/04/17 07:14:57;;;;;;;5.60;5.30;;;19.30;44.70;;;;;;5019726;28;21063;-68
2023/04/17 07:17:23;;;;;;;5.73;5.33;;;19.30;44.60;;;;;;5017503;28;20525;-66
2023/04/17 07:19:48;;;;;;;6.60;5.90;;;19.20;44.50;;;;;;5019082;28;20256;-73
2023/04/17 07:22:14;;;;;;;5.47;5.17;;;19.30;44.60;;;;;;5020031;28;20825;-68
2023/04/17 07:24:40;;;;;;;5.07;4.70;;;19.30;44.60;;;;;;5020293;28;20214;-68
2023/04/17 07:27:06;;;;;;;6.13;5.73;;;19.30;44.60;;;;;;5016791;28;20230;-65
2023/04/17 07:29:32;;;;;;;6.00;5.60;;;19.30;44.60;;;;;;5018915;28;20257;-65
2023/04/17 07:31:57;;;;;;;6.03;5.73;;;19.20;44.50;;;;;;5021128;28;20500;-65
2023/04/17 07:34:26;;;;;;;6.10;5.70;;;19.30;44.60;;;;;;5020050;28;20624;-66
2023/04/17 07:36:52;;;;;;;6.57;6.00;;;19.30;44.60;;;;;;5021199;28;21415;-65
2023/04/17 07:39:18;;;;;;;6.23;5.83;;;19.30;44.50;;;;;;5021345;28;20438;-65
2023/04/17 07:41:43;;;;;;;5.53;5.23;;;19.30;44.50;;;;;;5015133;28;20963;-68
2023/04/17 07:44:09;;;;;;;6.03;5.63;;;19.30;44.60;;;;;;5014997;28;20511;-65
2023/04/17 07:46:34;;;;;;;5.80;5.40;;;19.30;44.60;;;;;;5019425;28;20227;-69
2023/04/17 07:49:00;;;;;;;5.10;4.80;;;19.30;44.60;;;;;;5017865;28;20305;-67
2023/04/17 07:51:26;;;;;;;5.30;5.00;;;19.30;44.60;;;;;;5016001;28;20741;-66
2023/04/17 07:53:52;;;;;;;6.40;6.00;;;19.30;44.60;;;;;;5019868;28;22573;-65
2023/04/17 07:56:17;;;;;;;5.77;5.47;;;19.30;44.60;;;;;;5016251;28;20464;-69
2023/04/17 07:58:44;;;;;;;6.20;5.80;;;19.30;44.60;;;;;;5014500;28;20226;-66
2023/04/17 08:01:10;;;;;;;5.40;5.10;;;19.30;44.60;;;;;;5018218;28;20582;-71
2023/04/17 08:03:36;;;;;;;5.80;5.40;;;19.20;44.50;;;;;;5015458;28;20748;-65
2023/04/17 08:06:01;;;;;;;5.70;5.40;;;19.30;44.60;;;;;;5024116;28;20518;-66
2023/04/17 08:08:27;;;;;;;5.40;5.10;;;19.20;44.50;;;;;;5019812;28;20229;-66
2023/04/17 08:10:52;;;;;;;5.63;5.33;;;19.20;44.50;;;;;;5019284;28;20314;-66
2023/04/17 08:13:18;;;;;;;6.10;5.70;;;19.30;44.60;;;;;;5015773;28;20226;-66
2023/04/17 08:15:44;;;;;;;6.53;6.03;;;19.20;44.50;;;;;;5015644;28;20226;-66
2023/04/17 08:18:10;;;;;;;5.40;5.00;;;19.30;44.60;;;;;;5016791;28;20305;-69
2023/04/17 08:20:36;;;;;;;5.50;5.10;;;19.30;44.60;;;;;;5012798;28;20602;-66
2023/04/17 08:23:03;;;;;;;5.93;5.60;;;19.30;44.60;;;;;;5013403;28;20242;-68
2023/04/17 08:25:29;;;;;;;5.17;4.87;;;19.30;44.60;;;;;;5016129;28;20225;-67
2023/04/17 08:27:55;;;;;;;5.67;5.30;;;19.30;44.60;;;;;;5015745;28;20463;-72
2023/04/17 08:30:20;;;;;;;5.90;5.50;;;19.30;44.70;;;;;;5013779;28;20265;-74
2023/04/17 08:32:48;;;;;;;5.67;5.37;;;19.30;44.70;;;;;;5016872;28;20280;-68
2023/04/17 08:35:15;;;;;;;5.80;5.40;;;19.30;44.70;;;;;;5008763;28;20228;-68
2023/04/17 08:37:43;;;;;;;6.30;5.90;;;19.20;44.60;;;;;;5010964;28;20479;-70
2023/04/17 08:40:09;;;;;;;5.70;5.30;;;19.30;44.70;;;;;;5016251;28;20460;-69
2023/04/17 08:42:36;;;;;;;6.30;5.90;;;19.30;44.70;;;;;;5017101;28;20464;-68
2023/04/17 08:45:05;;;;;;;5.20;5.00;;;19.30;44.70;;;;;;5017875;28;20532;-67
2023/04/17 08:47:31;;;;;;;6.10;5.63;;;19.20;44.60;;;;;;5012330;28;20464;-67
2023/04/17 08:49:57;;;;;;;6.07;5.60;;;19.30;44.70;;;;;;5018179;28;20555;-66
2023/04/17 08:52:23;;;;;;;6.37;5.97;;;19.30;44.70;;;;;;5010945;28;20438;-67
2023/04/17 08:54:49;;;;;;;5.83;5.53;;;19.30;44.70;;;;;;5021174;28;20250;-66
2023/04/17 08:57:14;;;;;;;5.53;5.23;;;19.30;44.70;;;;;;5014897;28;20229;-68
2023/04/17 08:59:44;;;;;;;6.67;6.17;;;19.30;44.70;;;;;;5016494;28;21084;-66
2023/04/17 09:02:11;;;;;;;6.53;6.13;;;19.30;44.70;;;;;;5011130;28;20222;-67
2023/04/17 09:04:41;;;;;;;5.70;5.40;;;19.20;44.60;;;;;;5004801;28;20475;-72
2023/04/17 09:07:10;;;;;;;5.90;5.60;;;19.20;44.60;;;;;;5015859;28;20452;-66
2023/04/17 09:09:55;;;;;;;7.33;5.83;;;19.30;44.70;;;;;;5011736;28;20439;-67
2023/04/17 09:12:23;;;;;;;6.40;5.90;;;19.30;44.70;;;;;;5012220;28;20475;-67
2023/04/17 09:14:49;;;;;;;5.90;5.60;;;19.30;44.80;;;;;;5014714;28;20465;-66
2023/04/17 09:17:17;;;;;;;6.20;5.80;;;19.30;44.80;;;;;;5012402;28;20513;-66
2023/04/17 09:20:04;;;;;;;6.50;6.10;;;19.30;44.70;;;;;;5011866;28;20552;-72
2023/04/17 09:22:30;;;;;;;6.70;6.30;;;19.30;44.80;;;;;;5016536;28;20490;-68
2023/04/17 09:24:56;;;;;;;5.93;5.57;;;19.30;44.70;;;;;;5017507;28;20539;-68
2023/04/17 09:27:22;;;;;;;6.23;5.80;;;19.30;44.70;;;;;;5014744;28;20614;-67
2023/04/17 09:30:03;;;;;;;6.13;5.73;;;19.30;44.70;;;;;;5008286;28;20746;-69
2023/04/17 09:32:30;;;;;;;5.60;5.30;;;19.30;44.70;;;;;;5013581;28;20957;-73
2023/04/17 09:34:57;;;;;;;6.20;5.70;;;19.30;44.70;;;;;;5013980;28;20451;-66
2023/04/17 09:37:23;;;;;;;5.70;5.40;;;19.30;44.70;;;;;;5016559;28;20471;-68
2023/04/17 09:40:00;;;;;;;5.73;5.30;;;19.30;44.60;;;;;;5020330;28;21022;-68
2023/04/17 09:42:27;;;;;;;6.03;5.73;;;19.30;44.70;;;;;;5013076;28;20234;-69
2023/04/17 09:44:53;;;;;;;5.57;5.27;;;19.30;44.70;;;;;;5017259;28;20462;-66
2023/04/17 09:47:21;;;;;;;5.70;5.40;;;19.30;44.70;;;;;;5013583;28;20803;-66
2023/04/17 09:49:52;;;;;;;5.80;5.50;;;19.30;44.70;;;;;;5017264;28;20471;-66
2023/04/17 09:52:22;;;;;;;6.57;6.17;;;19.20;44.60;;;;;;5014784;28;20469;-74
2023/04/17 09:54:50;;;;;;;6.20;5.80;;;19.30;44.70;;;;;;5017411;28;20434;-65
2023/04/17 09:57:16;;;;;;;5.73;5.43;;;19.30;44.80;;;;;;5017543;28;20978;-68
2023/04/17 09:59:49;;;;;;;6.00;5.70;;;19.30;44.80;;;;;;5010696;28;20431;-66
2023/04/17 10:02:20;;;;;;;5.80;5.50;;;19.30;44.70;;;;;;5018363;28;20444;-70
2023/04/17 10:04:46;;;;;;;6.07;5.70;;;19.30;44.80;;;;;;5016466;28;20455;-67
2023/04/17 10:07:12;;;;;;;5.90;5.60;;;19.30;44.80;;;;;;5013602;28;20431;-66
2023/04/17 10:09:42;;;;;;;6.90;6.50;;;19.30;44.80;;;;;;5016085;28;21018;-69
2023/04/17 10:12:14;;;;;;;5.53;5.23;;;19.20;44.70;;;;;;5015789;28;20456;-67
2023/04/17 10:14:43;;;;;;;5.67;5.27;;;19.30;44.70;;;;;;5012693;28;20524;-70
2023/04/17 10:17:27;;;;;;;5.30;5.00;;;19.30;44.80;;;;;;5012205;28;20423;-71
2023/04/17 10:19:53;;;;;;;5.90;5.60;;;19.20;44.60;;;;;;5010192;28;20433;-68
2023/04/17 10:22:18;;;;;;;5.97;5.57;;;19.20;44.60;;;;;;5010701;28;20451;-66
2023/04/17 10:24:46;;;;;;;6.53;5.80;;;19.30;44.80;;;;;;5019285;28;20456;-67
2023/04/17 10:27:23;;;;;;;5.87;5.57;;;19.20;44.60;;;;;;5016971;28;20621;-67
2023/04/17 10:30:00;;;;;;;6.00;5.70;;;19.20;44.60;;;;;;5017471;28;20452;-67
2023/04/17 10:32:29;;;;;;;5.20;4.90;;;19.20;44.60;;;;;;5012356;28;20809;-66
2023/04/17 10:35:00;;;;;;;5.93;5.53;;;19.30;44.70;;;;;;5016943;28;21423;-67
2023/04/17 10:37:51;;;;;;;6.13;5.83;;;19.30;44.70;;;;;;5013704;28;20543;-67
2023/04/17 10:40:25;;;;;;;6.10;5.70;;;19.30;44.70;;;;;;5014390;28;20493;-67
2023/04/17 10:43:10;;;;;;;5.97;5.60;;;19.30;44.70;;;;;;5028198;28;20509;-66
2023/04/17 10:45:54;;;;;;;5.50;5.20;;;19.30;44.70;;;;;;5014158;28;20984;-70
2023/04/17 10:48:31;;;;;;;5.77;5.43;;;19.30;44.70;;;;;;5019398;28;20449;-67
2023/04/17 10:50:58;;;;;;;5.80;5.50;;;19.30;44.70;;;;;;5017464;28;20455;-66
2023/04/17 10:53:37;;;;;;;5.67;5.37;;;19.30;44.70;;;;;;5020262;28;20478;-67
2023/04/17 10:56:03;;;;;;;6.00;5.40;;;19.30;44.70;;;;;;5012182;28;20430;-69
2023/04/17 10:58:29;;;;;;;5.60;5.30;;;19.30;44.60;;;;;;5016123;28;20430;-67
2023/04/17 11:00:54;;;;;;;5.93;5.63;;;19.30;44.60;;;;;;5012987;28;20615;-68
2023/04/17 11:03:22;;;;;;;5.90;5.60;;;19.30;44.60;;;;;;5015087;28;20218;-65
2023/04/17 11:05:48;;;;;;;5.30;5.00;;;19.30;44.60;;;;;;5015968;28;20215;-65
2023/04/17 11:08:14;;;;;;;5.37;5.07;;;19.30;44.60;;;;;;5013887;28;20457;-65
2023/04/17 11:10:40;;;;;;;5.57;5.27;;;19.30;44.60;;;;;;5018416;28;20435;-65
2023/04/17 11:13:05;;;;;;;5.07;4.80;;;19.30;44.60;;;;;;5016683;28;20866;-70
2023/04/17 11:15:34;;;;;;;5.50;5.20;;;19.30;44.60;;;;;;5015690;28;22237;-65
2023/04/17 11:18:00;;;;;;;5.53;5.23;;;19.30;44.60;;;;;;5011458;28;20234;-70
2023/04/17 11:20:29;;;;;;;5.90;5.60;;;19.40;44.60;;;;;;5018454;28;20424;-66
2023/04/17 11:22:55;;;;;;;5.23;4.93;;;19.40;44.60;;;;;;5014041;28;20963;-66
2023/04/17 11:25:25;;;;;;;5.50;5.20;;;19.30;44.60;;;;;;5017655;28;20451;-69
2023/04/17 11:27:56;;;;;;;4.93;4.63;;;19.30;44.60;;;;;;5012469;28;20476;-73
2023/04/17 11:30:35;;;;;;;5.30;5.00;;;19.40;44.60;;;;;;5011866;28;20955;-70
2023/04/17 11:33:06;;;;;;;5.70;5.30;;;19.40;44.60;;;;;;5017761;28;20529;-67
2023/04/17 11:35:33;;;;;;;4.93;4.63;;;19.40;44.70;;;;;;5018851;28;20611;-71
2023/04/17 11:38:11;;;;;;;5.10;4.80;;;19.30;44.60;;;;;;5012323;28;20431;-66
2023/04/17 11:40:48;;;;;;;4.93;4.70;;;19.40;44.50;;;;;;5016380;28;20990;-67
2023/04/17 11:43:14;;;;;;;4.83;4.63;;;19.40;44.60;;;;;;5012927;28;20468;-71
2023/04/17 11:45:41;;;;;;;5.00;4.80;;;19.30;44.50;;;;;;5010368;28;20483;-71
2023/04/17 11:48:12;;;;;;;5.33;5.03;;;19.40;44.60;;;;;;5010496;28;20444;-68
2023/04/17 11:50:39;;;;;;;4.90;4.60;;;19.40;44.60;;;;;;5013137;28;20792;-65
2023/04/17 11:53:05;;;;;;;5.30;5.00;;;19.40;44.50;;;;;;5012006;28;20794;-71
2023/04/17 11:55:32;;;;;;;4.80;4.50;;;19.40;44.60;;;;;;5006852;28;20442;-68
2023/04/17 11:58:08;;;;;;;4.60;4.40;;;19.40;44.60;;;;;;5013480;28;20264;-69
2023/04/17 12:00:36;;;;;;;4.70;4.50;;;19.40;44.60;;;;;;5016222;28;20918;-66
2023/04/17 12:03:20;;;;;;;5.70;5.33;;;19.40;44.60;;;;;;5018704;28;22371;-66
2023/04/17 12:05:58;;;;;;;4.83;4.53;;;19.40;44.60;;;;;;5019278;28;20966;-65
2023/04/17 12:08:24;;;;;;;4.33;4.13;;;19.40;44.50;;;;;;5018324;28;20433;-70
2023/04/17 12:10:49;;;;;;;4.93;4.63;;;19.40;44.60;;;;;;5018739;28;20809;-67
2023/04/17 12:13:15;;;;;;;5.17;4.87;;;19.40;44.50;;;;;;5017687;28;20924;-67
2023/04/17 12:15:40;;;;;;;4.90;4.60;;;19.40;44.50;;;;;;5016453;28;20222;-71
2023/04/17 12:18:07;;;;;;;4.83;4.60;;;19.40;44.50;;;;;;5009421;28;20230;-65
2023/04/17 12:20:36;;;;;;;4.23;4.03;;;19.40;44.40;;;;;;5012419;28;20219;-66
2023/04/17 12:23:03;;;;;;;5.00;4.70;;;19.40;44.40;;;;;;5012443;28;20434;-66
2023/04/17 12:25:30;;;;;;;4.37;4.17;;;19.40;44.40;;;;;;5009380;28;20469;-70
2023/04/17 12:27:57;;;;;;;4.40;4.20;;;19.40;44.40;;;;;;5018384;28;20430;-65
2023/04/17 12:30:24;;;;;;;4.77;4.57;;;19.40;45.10;;;;;;5021594;28;20441;-65
2023/04/17 12:32:51;;;;;;;4.93;4.73;;;19.40;44.40;;;;;;5019151;28;20510;-67
2023/04/17 12:35:20;;;;;;;4.83;4.63;;;19.40;44.40;;;;;;5014879;28;20464;-65
2023/04/17 12:37:47;;;;;;;5.50;5.10;;;19.40;44.40;;;;;;5018104;28;20534;-65
2023/04/17 12:40:17;;;;;;;4.67;4.47;;;19.40;44.30;;;;;;5021716;28;20461;-65
2023/04/17 12:42:44;;;;;;;4.67;4.30;;;19.40;44.40;;;;;;5017239;28;20455;-67
2023/04/17 12:45:10;;;;;;;4.33;4.13;;;19.40;44.40;;;;;;5016697;28;20449;-67
2023/04/17 12:47:35;;;;;;;4.97;4.77;;;19.40;44.40;;;;;;5011794;28;20460;-68